Time;durP1;ratioP1;P1;durP2;ratioP2;P2;SDS_P1;SDS_P2;PMS_P1;PMS_P2;Temp;Humidity;BMP_temperature;BMP_pressure;BME280_temperature;BME280_humidity;BME280_pressure;Samples;Min_cycle;Max_cycle;Signal;HPM_P1;HPM_P2
2023/09/16 00:00:11;;;;;;;4.22;3.88;;;;;;;;;;5139037;27;20050;-79
2023/09/16 00:02:38;;;;;;;4.28;3.88;;;;;;;;;;5138530;27;20058;-79
2023/09/16 00:05:05;;;;;;;4.50;4.10;;;;;;;;;;5135989;27;20023;-77
2023/09/16 00:07:32;;;;;;;4.65;4.25;;;;;;;;;;5133461;28;20542;-78
2023/09/16 00:09:58;;;;;;;4.95;4.55;;;;;;;;;;5134935;27;20098;-78
2023/09/16 00:12:25;;;;;;;4.78;4.30;;;;;;;;;;5133543;27;20030;-79
2023/09/16 00:14:51;;;;;;;4.60;4.20;;;;;;;;;;5116554;28;20024;-78
2023/09/16 00:17:17;;;;;;;5.05;4.63;;;;;;;;;;5114397;28;20027;-77
2023/09/16 00:19:43;;;;;;;4.10;3.70;;;;;;;;;;5113834;28;20024;-78
2023/09/16 00:22:10;;;;;;;4.28;3.88;;;;;;;;;;5116425;28;20028;-78
2023/09/16 00:24:36;;;;;;;4.20;3.90;;;;;;;;;;5115363;28;20372;-79
2023/09/16 00:27:03;;;;;;;4.45;4.05;;;;;;;;;;5115027;28;20027;-79
2023/09/16 00:29:30;;;;;;;4.70;4.30;;;;;;;;;;5114272;27;20020;-79
2023/09/16 00:31:56;;;;;;;4.50;4.10;;;;;;;;;;5113820;28;20035;-78
2023/09/16 00:34:22;;;;;;;4.50;4.10;;;;;;;;;;5114221;28;20382;-78
2023/09/16 00:36:48;;;;;;;5.35;4.28;;;;;;;;;;5113950;28;20027;-78
2023/09/16 00:39:15;;;;;;;5.13;4.63;;;;;;;;;;5116921;28;20023;-79
2023/09/16 00:41:42;;;;;;;4.20;3.90;;;;;;;;;;5145117;27;20019;-79
2023/09/16 00:44:09;;;;;;;3.78;3.47;;;;;;;;;;5140377;27;20029;-78
2023/09/16 00:46:35;;;;;;;4.30;3.90;;;;;;;;;;5138044;27;20019;-77
2023/09/16 00:49:01;;;;;;;5.15;4.53;;;;;;;;;;5138116;27;20019;-79
2023/09/16 00:51:27;;;;;;;4.43;4.03;;;;;;;;;;5139995;27;20031;-78
2023/09/16 00:53:54;;;;;;;4.53;4.20;;;;;;;;;;5142429;27;20053;-79
2023/09/16 00:56:20;;;;;;;4.38;3.97;;;;;;;;;;5141990;27;20031;-78
2023/09/16 00:58:46;;;;;;;4.03;3.72;;;;;;;;;;5139090;27;20023;-78
2023/09/16 01:01:17;;;;;;;3.95;3.65;;;;;;;;;;5138060;27;20058;-78
2023/09/16 01:03:43;;;;;;;3.92;3.63;;;;;;;;;;5138118;27;20015;-79
2023/09/16 01:06:10;;;;;;;3.88;3.58;;;;;;;;;;5140770;27;20019;-79
2023/09/16 01:08:36;;;;;;;3.65;3.35;;;;;;;;;;5142259;27;20019;-78
2023/09/16 01:11:05;;;;;;;3.58;3.28;;;;;;;;;;5145356;27;20019;-79
2023/09/16 01:13:31;;;;;;;3.00;2.80;;;;;;;;;;5155132;27;20030;-79
2023/09/16 01:16:02;;;;;;;3.33;3.03;;;;;;;;;;5150694;27;20084;-78
2023/09/16 01:18:30;;;;;;;3.15;2.95;;;;;;;;;;5129400;27;20076;-77
2023/09/16 01:20:58;;;;;;;3.30;3.10;;;;;;;;;;5117294;28;20032;-77
2023/09/16 01:23:24;;;;;;;3.15;2.85;;;;;;;;;;5117220;28;20471;-78
2023/09/16 01:25:50;;;;;;;3.25;3.00;;;;;;;;;;5118261;28;20363;-78
2023/09/16 01:28:16;;;;;;;3.03;2.83;;;;;;;;;;5117919;28;20020;-79
2023/09/16 01:30:47;;;;;;;2.83;2.63;;;;;;;;;;5133310;27;20034;-77
2023/09/16 01:33:23;;;;;;;3.08;2.88;;;;;;;;;;5148628;27;20069;-79
2023/09/16 01:35:51;;;;;;;3.00;2.80;;;;;;;;;;5139027;27;20031;-77
2023/09/16 01:38:20;;;;;;;3.35;3.15;;;;;;;;;;5137651;27;20074;-80
2023/09/16 01:40:47;;;;;;;3.00;2.80;;;;;;;;;;5137044;27;20022;-78
2023/09/16 01:43:13;;;;;;;3.58;3.28;;;;;;;;;;5136853;27;20030;-78
2023/09/16 01:45:43;;;;;;;3.63;3.33;;;;;;;;;;5138614;27;20027;-78
2023/09/16 01:48:09;;;;;;;3.50;3.20;;;;;;;;;;5138330;27;20022;-80
2023/09/16 01:50:36;;;;;;;2.63;2.42;;;;;;;;;;5139257;27;20039;-79
2023/09/16 01:53:03;;;;;;;3.40;3.10;;;;;;;;;;5141753;27;20050;-79
2023/09/16 01:55:30;;;;;;;2.90;2.70;;;;;;;;;;5140144;27;20020;-80
2023/09/16 01:57:57;;;;;;;3.20;2.97;;;;;;;;;;5137608;27;20027;-79
2023/09/16 02:00:23;;;;;;;3.00;2.80;;;;;;;;;;5142254;27;20019;-80
2023/09/16 02:02:49;;;;;;;3.08;2.80;;;;;;;;;;5138797;27;20020;-80
2023/09/16 02:05:16;;;;;;;2.83;2.63;;;;;;;;;;5127378;28;20039;-80
2023/09/16 02:07:42;;;;;;;2.72;2.53;;;;;;;;;;5123063;28;20024;-79
2023/09/16 02:10:09;;;;;;;3.28;3.03;;;;;;;;;;5126804;27;20039;-80
2023/09/16 02:12:36;;;;;;;3.05;2.85;;;;;;;;;;5146453;27;20019;-79
2023/09/16 02:15:04;;;;;;;4.10;3.70;;;;;;;;;;5139857;27;20542;-78
2023/09/16 02:17:30;;;;;;;3.13;2.88;;;;;;;;;;5140765;27;20053;-79
2023/09/16 02:19:56;;;;;;;3.20;2.97;;;;;;;;;;5141901;27;20031;-78
2023/09/16 02:22:22;;;;;;;2.90;2.70;;;;;;;;;;5135203;27;20047;-78
2023/09/16 02:24:48;;;;;;;3.63;3.30;;;;;;;;;;5145108;27;20050;-79
2023/09/16 02:27:15;;;;;;;3.03;2.83;;;;;;;;;;5154031;27;20023;-78
2023/09/16 02:29:41;;;;;;;3.00;2.78;;;;;;;;;;5156956;27;20019;-79
2023/09/16 02:32:07;;;;;;;4.70;4.28;;;;;;;;;;5158670;27;20083;-78
2023/09/16 02:34:36;;;;;;;5.15;4.75;;;;;;;;;;5136713;27;20022;-77
2023/09/16 02:37:02;;;;;;;5.15;4.75;;;;;;;;;;5137957;27;20392;-77
2023/09/16 02:39:28;;;;;;;4.90;4.45;;;;;;;;;;5139104;27;20059;-78
2023/09/16 02:41:54;;;;;;;4.90;4.50;;;;;;;;;;5145491;27;20023;-78
2023/09/16 02:44:20;;;;;;;5.03;4.15;;;;;;;;;;5158312;27;20027;-78
2023/09/16 02:46:46;;;;;;;4.40;4.05;;;;;;;;;;5151278;27;20055;-77
2023/09/16 02:49:13;;;;;;;4.57;4.18;;;;;;;;;;5155725;27;20019;-78
2023/09/16 02:51:39;;;;;;;3.88;3.58;;;;;;;;;;5114623;28;20031;-79
2023/09/16 02:54:06;;;;;;;4.28;3.88;;;;;;;;;;5136171;27;20031;-77
2023/09/16 02:56:32;;;;;;;3.75;3.38;;;;;;;;;;5150479;27;20033;-80
2023/09/16 02:58:59;;;;;;;3.35;3.05;;;;;;;;;;5151664;27;20019;-79
2023/09/16 03:01:25;;;;;;;3.53;3.22;;;;;;;;;;5148933;27;20052;-82
2023/09/16 03:03:51;;;;;;;3.47;3.17;;;;;;;;;;5150383;27;20017;-80
2023/09/16 03:06:17;;;;;;;4.50;4.10;;;;;;;;;;5161015;27;20416;-79
2023/09/16 03:08:43;;;;;;;3.58;3.00;;;;;;;;;;5159858;27;20071;-79
2023/09/16 03:11:09;;;;;;;3.50;3.20;;;;;;;;;;5160676;27;20338;-81
2023/09/16 03:13:35;;;;;;;3.17;2.92;;;;;;;;;;5137357;27;20023;-81
2023/09/16 03:16:15;;;;;;;3.28;2.97;;;;;;;;;;5140521;27;20023;-80
2023/09/16 03:18:46;;;;;;;3.33;3.05;;;;;;;;;;5138860;27;20030;-81
2023/09/16 03:21:12;;;;;;;3.55;3.25;;;;;;;;;;5141943;27;20110;-78
2023/09/16 03:23:38;;;;;;;3.08;2.88;;;;;;;;;;5139326;27;20050;-78
2023/09/16 03:26:05;;;;;;;2.88;2.63;;;;;;;;;;5138485;27;20713;-77
2023/09/16 03:28:31;;;;;;;2.72;2.53;;;;;;;;;;5135714;27;20466;-80
2023/09/16 03:30:57;;;;;;;2.75;2.55;;;;;;;;;;5135930;27;20401;-79
2023/09/16 03:33:23;;;;;;;2.30;2.20;;;;;;;;;;5135601;27;20027;-80
2023/09/16 03:35:49;;;;;;;2.75;2.55;;;;;;;;;;5135196;27;20031;-80
2023/09/16 03:38:18;;;;;;;2.85;2.65;;;;;;;;;;5135990;27;20026;-82
2023/09/16 03:40:44;;;;;;;2.80;2.60;;;;;;;;;;5122976;27;20033;-79
2023/09/16 03:43:11;;;;;;;3.25;3.05;;;;;;;;;;5136058;28;20022;-78
2023/09/16 03:45:37;;;;;;;3.70;3.40;;;;;;;;;;5137648;28;20034;-81
2023/09/16 03:48:03;;;;;;;3.33;3.03;;;;;;;;;;5150932;27;20034;-82
2023/09/16 03:50:30;;;;;;;3.47;3.17;;;;;;;;;;5169637;27;20023;-78
2023/09/16 03:52:56;;;;;;;3.78;3.42;;;;;;;;;;5149785;27;20037;-79
2023/09/16 03:55:22;;;;;;;3.10;2.90;;;;;;;;;;5147141;27;20010;-79
2023/09/16 03:57:48;;;;;;;3.83;3.53;;;;;;;;;;5154839;27;20018;-79
2023/09/16 04:00:15;;;;;;;3.30;3.00;;;;;;;;;;5151065;27;20389;-78
2023/09/16 04:02:41;;;;;;;3.58;3.28;;;;;;;;;;5134573;27;20028;-78
2023/09/16 04:05:07;;;;;;;4.15;3.75;;;;;;;;;;5113546;28;20024;-76
2023/09/16 04:07:33;;;;;;;3.88;3.58;;;;;;;;;;5131589;28;20061;-77
2023/09/16 04:09:59;;;;;;;3.45;3.20;;;;;;;;;;5133843;28;20026;-76
2023/09/16 04:12:25;;;;;;;3.30;2.95;;;;;;;;;;5132099;27;20027;-78
2023/09/16 04:14:51;;;;;;;3.20;3.00;;;;;;;;;;5137508;27;20026;-78
2023/09/16 04:17:19;;;;;;;2.55;2.45;;;;;;;;;;5132540;27;20019;-77
2023/09/16 04:19:45;;;;;;;2.97;2.78;;;;;;;;;;5117359;28;20539;-77
2023/09/16 04:22:11;;;;;;;2.75;2.55;;;;;;;;;;5117317;28;20059;-77
2023/09/16 04:24:37;;;;;;;2.80;2.60;;;;;;;;;;5116884;28;20020;-77
2023/09/16 04:27:03;;;;;;;2.38;2.22;;;;;;;;;;5117120;28;20020;-78
2023/09/16 04:29:31;;;;;;;2.47;2.28;;;;;;;;;;5122905;27;20027;-77
2023/09/16 04:31:57;;;;;;;2.50;2.30;;;;;;;;;;5136372;27;20513;-77
2023/09/16 04:34:23;;;;;;;2.42;2.28;;;;;;;;;;5137678;27;20031;-77
2023/09/16 04:36:49;;;;;;;2.58;2.38;;;;;;;;;;5137989;27;20056;-77
2023/09/16 04:39:17;;;;;;;2.92;2.72;;;;;;;;;;5138352;27;20497;-77
2023/09/16 04:41:43;;;;;;;2.63;2.42;;;;;;;;;;5151936;27;20019;-78
2023/09/16 04:44:09;;;;;;;2.55;2.35;;;;;;;;;;5158187;27;20415;-78
2023/09/16 04:46:35;;;;;;;2.60;2.40;;;;;;;;;;5158142;27;20049;-77
2023/09/16 04:49:01;;;;;;;2.47;2.28;;;;;;;;;;5157702;27;20019;-75
2023/09/16 04:51:27;;;;;;;1.88;1.77;;;;;;;;;;5138084;27;20027;-76
2023/09/16 04:53:55;;;;;;;2.38;2.17;;;;;;;;;;5117247;28;20031;-77
2023/09/16 04:56:21;;;;;;;2.10;1.90;;;;;;;;;;5121513;27;20015;-77
2023/09/16 04:58:49;;;;;;;2.13;2.00;;;;;;;;;;5136524;27;20031;-77
2023/09/16 05:01:15;;;;;;;2.22;2.13;;;;;;;;;;5129936;27;20055;-77
2023/09/16 05:03:41;;;;;;;2.67;2.47;;;;;;;;;;5116760;28;20077;-76
2023/09/16 05:06:07;;;;;;;2.72;2.53;;;;;;;;;;5119928;27;20051;-76
2023/09/16 05:08:33;;;;;;;2.80;2.60;;;;;;;;;;5132832;27;20042;-78
2023/09/16 05:10:59;;;;;;;2.85;2.65;;;;;;;;;;5125211;27;20367;-78
2023/09/16 05:13:26;;;;;;;3.00;2.80;;;;;;;;;;5134492;27;20480;-78
2023/09/16 05:15:52;;;;;;;3.25;2.95;;;;;;;;;;5131231;27;20652;-77
2023/09/16 05:18:18;;;;;;;3.35;3.05;;;;;;;;;;5120434;27;20026;-77
2023/09/16 05:20:44;;;;;;;3.35;3.05;;;;;;;;;;5132852;27;20852;-78
2023/09/16 05:23:13;;;;;;;2.80;2.60;;;;;;;;;;5122507;27;20024;-78
2023/09/16 05:25:51;;;;;;;3.13;2.92;;;;;;;;;;5133759;27;20020;-77
2023/09/16 05:28:17;;;;;;;2.90;2.70;;;;;;;;;;5129544;27;20035;-77
2023/09/16 05:30:43;;;;;;;3.45;3.15;;;;;;;;;;5115978;28;20033;-78
2023/09/16 05:33:12;;;;;;;2.80;2.60;;;;;;;;;;5124581;27;20024;-76
2023/09/16 05:35:39;;;;;;;2.90;2.70;;;;;;;;;;5130334;27;20019;-77
2023/09/16 05:38:05;;;;;;;2.60;2.40;;;;;;;;;;5134705;27;20391;-77
2023/09/16 05:40:32;;;;;;;2.22;2.13;;;;;;;;;;5132255;27;20019;-78
2023/09/16 05:43:00;;;;;;;2.97;2.78;;;;;;;;;;5132945;27;20114;-78
2023/09/16 05:45:26;;;;;;;2.63;2.42;;;;;;;;;;5115395;27;20020;-78
2023/09/16 05:47:52;;;;;;;2.50;2.30;;;;;;;;;;5125958;27;20102;-75
2023/09/16 05:50:18;;;;;;;2.40;2.30;;;;;;;;;;5122639;27;20031;-76
2023/09/16 05:52:45;;;;;;;2.60;2.40;;;;;;;;;;5124502;27;20020;-76
2023/09/16 05:55:11;;;;;;;2.67;2.47;;;;;;;;;;5117197;28;20027;-76
2023/09/16 05:57:37;;;;;;;3.35;3.10;;;;;;;;;;5116898;28;20039;-77
2023/09/16 06:00:03;;;;;;;3.53;3.15;;;;;;;;;;5116806;27;20502;-77
2023/09/16 06:02:29;;;;;;;3.60;3.30;;;;;;;;;;5115463;28;20045;-77
2023/09/16 06:04:56;;;;;;;4.15;3.75;;;;;;;;;;5124035;27;20023;-78
2023/09/16 06:07:25;;;;;;;4.82;4.43;;;;;;;;;;5136876;27;20102;-78
2023/09/16 06:09:51;;;;;;;6.60;4.78;;;;;;;;;;5123148;27;20023;-78
2023/09/16 06:12:17;;;;;;;4.85;4.43;;;;;;;;;;5135703;27;20027;-78
2023/09/16 06:14:43;;;;;;;5.72;5.22;;;;;;;;;;5135612;27;20042;-78
2023/09/16 06:17:10;;;;;;;5.50;5.03;;;;;;;;;;5134766;27;20027;-78
2023/09/16 06:19:39;;;;;;;5.97;5.45;;;;;;;;;;5117854;27;20027;-78
2023/09/16 06:22:05;;;;;;;5.80;5.30;;;;;;;;;;5134165;27;20482;-77
2023/09/16 06:24:31;;;;;;;5.03;4.63;;;;;;;;;;5123865;27;20023;-77
2023/09/16 06:26:57;;;;;;;5.15;4.75;;;;;;;;;;5128607;27;20050;-77
2023/09/16 06:29:24;;;;;;;5.00;4.53;;;;;;;;;;5127323;27;20038;-78
2023/09/16 06:31:50;;;;;;;4.20;3.90;;;;;;;;;;5135301;27;20088;-78
2023/09/16 06:34:16;;;;;;;4.35;3.95;;;;;;;;;;5136411;27;20037;-77
2023/09/16 06:36:42;;;;;;;3.75;3.38;;;;;;;;;;5120491;27;20019;-78
2023/09/16 06:39:10;;;;;;;4.22;3.83;;;;;;;;;;5115535;27;20083;-79
2023/09/16 06:41:36;;;;;;;3.05;2.85;;;;;;;;;;5128796;27;20015;-77
2023/09/16 06:44:02;;;;;;;3.20;3.00;;;;;;;;;;5135742;27;20019;-78
2023/09/16 06:46:28;;;;;;;3.17;2.90;;;;;;;;;;5136413;27;20043;-78
2023/09/16 06:48:54;;;;;;;2.97;2.78;;;;;;;;;;5136438;27;20027;-79
2023/09/16 06:51:20;;;;;;;2.95;2.65;;;;;;;;;;5121641;27;20024;-79
2023/09/16 06:53:46;;;;;;;2.63;2.42;;;;;;;;;;5115419;27;20100;-78
2023/09/16 06:56:12;;;;;;;3.25;2.95;;;;;;;;;;5113954;28;20546;-78
2023/09/16 06:58:38;;;;;;;3.72;3.42;;;;;;;;;;5116738;27;20391;-77
2023/09/16 07:01:09;;;;;;;3.45;3.03;;;;;;;;;;5118863;27;20024;-78
2023/09/16 07:03:35;;;;;;;3.53;3.22;;;;;;;;;;5133839;27;20017;-77
2023/09/16 07:06:01;;;;;;;3.88;3.40;;;;;;;;;;5135910;27;20019;-77
2023/09/16 07:08:27;;;;;;;2.97;2.78;;;;;;;;;;5135409;27;20023;-77
2023/09/16 07:10:55;;;;;;;3.10;2.90;;;;;;;;;;5131891;27;20023;-77
2023/09/16 07:13:21;;;;;;;3.28;2.97;;;;;;;;;;5124621;27;20031;-77
2023/09/16 07:15:54;;;;;;;2.53;2.38;;;;;;;;;;5125804;27;20024;-79
2023/09/16 07:18:20;;;;;;;2.95;2.75;;;;;;;;;;5128208;27;20030;-78
2023/09/16 07:20:46;;;;;;;3.08;2.88;;;;;;;;;;5133931;27;20023;-77
2023/09/16 07:23:12;;;;;;;2.75;2.55;;;;;;;;;;5135535;27;20462;-78
2023/09/16 07:25:39;;;;;;;2.60;2.42;;;;;;;;;;5135276;27;20099;-78
2023/09/16 07:28:07;;;;;;;3.28;3.08;;;;;;;;;;5135064;27;20019;-77
2023/09/16 07:30:33;;;;;;;3.47;3.13;;;;;;;;;;5135099;27;20038;-77
2023/09/16 07:33:00;;;;;;;3.65;3.35;;;;;;;;;;5137469;27;20031;-78
2023/09/16 07:35:26;;;;;;;4.25;3.85;;;;;;;;;;5116711;27;20065;-77
2023/09/16 07:37:52;;;;;;;4.03;3.70;;;;;;;;;;5115929;28;20020;-78
2023/09/16 07:40:18;;;;;;;6.25;5.05;;;;;;;;;;5118599;28;20007;-78
2023/09/16 07:42:44;;;;;;;4.88;4.47;;;;;;;;;;5127908;28;20019;-78
2023/09/16 07:45:10;;;;;;;4.05;3.67;;;;;;;;;;5122915;27;20048;-78
2023/09/16 07:47:37;;;;;;;4.07;3.67;;;;;;;;;;5117523;28;20038;-78
2023/09/16 07:50:03;;;;;;;3.67;3.38;;;;;;;;;;5118769;28;20023;-77
2023/09/16 07:52:29;;;;;;;3.25;2.95;;;;;;;;;;5125352;27;20069;-79
2023/09/16 07:54:56;;;;;;;3.67;3.38;;;;;;;;;;5122854;27;20028;-78
2023/09/16 07:57:23;;;;;;;3.00;2.80;;;;;;;;;;5119673;28;20023;-77
2023/09/16 07:59:49;;;;;;;3.10;2.90;;;;;;;;;;5118808;28;20122;-77
2023/09/16 08:02:16;;;;;;;3.42;3.13;;;;;;;;;;5118738;28;20016;-77
2023/09/16 08:04:42;;;;;;;3.22;2.90;;;;;;;;;;5136247;27;20046;-77
2023/09/16 08:07:08;;;;;;;3.80;3.50;;;;;;;;;;5130429;27;20073;-78
2023/09/16 08:09:34;;;;;;;2.78;2.63;;;;;;;;;;5132683;27;20098;-79
2023/09/16 08:12:00;;;;;;;3.03;2.83;;;;;;;;;;5132652;27;20030;-77
2023/09/16 08:14:27;;;;;;;2.65;2.45;;;;;;;;;;5123767;27;20019;-78
2023/09/16 08:16:56;;;;;;;3.35;3.05;;;;;;;;;;5131286;27;20019;-78
2023/09/16 08:19:23;;;;;;;3.05;2.85;;;;;;;;;;5121499;27;20108;-78
2023/09/16 08:21:49;;;;;;;3.47;3.28;;;;;;;;;;5131790;27;20015;-78
2023/09/16 08:24:15;;;;;;;2.90;2.70;;;;;;;;;;5129114;27;20053;-77
2023/09/16 08:26:41;;;;;;;3.25;3.00;;;;;;;;;;5123007;27;20027;-77
2023/09/16 08:29:07;;;;;;;2.95;2.75;;;;;;;;;;5139317;27;20031;-77
2023/09/16 08:31:33;;;;;;;2.70;2.50;;;;;;;;;;5138884;27;20041;-78
2023/09/16 08:34:02;;;;;;;2.90;2.70;;;;;;;;;;5138104;27;20098;-77
2023/09/16 08:36:28;;;;;;;3.08;2.88;;;;;;;;;;5137716;27;20015;-77
2023/09/16 08:38:54;;;;;;;3.63;3.33;;;;;;;;;;5133760;27;20042;-78
2023/09/16 08:41:20;;;;;;;2.90;2.70;;;;;;;;;;5127526;27;20050;-78
2023/09/16 08:43:48;;;;;;;4.55;3.38;;;;;;;;;;5128768;27;20031;-78
2023/09/16 08:46:17;;;;;;;3.63;3.33;;;;;;;;;;5136015;27;20025;-77
2023/09/16 08:48:45;;;;;;;3.35;3.15;;;;;;;;;;5134994;27;20050;-78
2023/09/16 08:51:12;;;;;;;3.08;2.88;;;;;;;;;;5136819;27;20027;-78
2023/09/16 08:53:38;;;;;;;2.97;2.78;;;;;;;;;;5135820;27;20531;-78
2023/09/16 08:56:05;;;;;;;2.75;2.55;;;;;;;;;;5127214;27;20026;-78
2023/09/16 08:58:35;;;;;;;3.30;2.97;;;;;;;;;;5124791;27;20098;-78
2023/09/16 09:01:02;;;;;;;3.30;3.10;;;;;;;;;;5124366;27;20023;-77
2023/09/16 09:03:30;;;;;;;2.85;2.67;;;;;;;;;;5125441;27;20339;-77
2023/09/16 09:05:56;;;;;;;2.80;2.60;;;;;;;;;;5137262;27;20020;-77
2023/09/16 09:08:22;;;;;;;2.55;2.35;;;;;;;;;;5136389;27;20454;-78
2023/09/16 09:10:49;;;;;;;2.30;2.20;;;;;;;;;;5123982;27;20019;-78
2023/09/16 09:13:15;;;;;;;2.70;2.50;;;;;;;;;;5130274;27;20015;-78
2023/09/16 09:15:42;;;;;;;2.67;2.58;;;;;;;;;;5128136;27;20019;-77
2023/09/16 09:18:08;;;;;;;3.63;3.33;;;;;;;;;;5127002;27;20031;-76
2023/09/16 09:20:35;;;;;;;4.43;4.13;;;;;;;;;;5137393;27;20023;-77
2023/09/16 09:23:02;;;;;;;3.90;3.60;;;;;;;;;;5139386;27;20100;-77
2023/09/16 09:25:31;;;;;;;3.58;3.28;;;;;;;;;;5140624;27;20166;-79
2023/09/16 09:27:57;;;;;;;3.70;3.40;;;;;;;;;;5152688;27;20016;-78
2023/09/16 09:30:27;;;;;;;3.38;3.17;;;;;;;;;;5116028;28;20394;-78
2023/09/16 09:32:55;;;;;;;3.45;3.25;;;;;;;;;;5117356;27;20016;-79
2023/09/16 09:35:24;;;;;;;3.58;3.28;;;;;;;;;;5115747;28;20017;-79
2023/09/16 09:37:50;;;;;;;3.53;3.22;;;;;;;;;;5116947;27;20082;-78
2023/09/16 09:40:17;;;;;;;3.03;2.83;;;;;;;;;;5119116;27;20020;-78
2023/09/16 09:42:48;;;;;;;3.67;3.38;;;;;;;;;;5136889;27;20024;-78
2023/09/16 09:45:15;;;;;;;3.55;3.28;;;;;;;;;;5118298;27;20391;-78
2023/09/16 09:47:42;;;;;;;3.35;3.15;;;;;;;;;;5133115;27;20061;-78
2023/09/16 09:50:12;;;;;;;3.47;2.97;;;;;;;;;;5116521;28;20043;-78
2023/09/16 09:52:38;;;;;;;3.22;3.03;;;;;;;;;;5116795;27;20035;-78
2023/09/16 09:55:04;;;;;;;2.67;2.58;;;;;;;;;;5116957;27;20051;-77
2023/09/16 09:57:30;;;;;;;3.35;3.15;;;;;;;;;;5133955;27;20019;-78
2023/09/16 09:59:57;;;;;;;3.88;3.58;;;;;;;;;;5124076;27;20088;-78
2023/09/16 10:02:26;;;;;;;4.75;4.28;;;;;;;;;;5126662;27;20023;-78
2023/09/16 10:05:01;;;;;;;4.18;3.88;;;;;;;;;;5142937;27;20029;-77
2023/09/16 10:07:27;;;;;;;4.07;3.78;;;;;;;;;;5145968;27;20347;-77
2023/09/16 10:09:53;;;;;;;3.60;3.38;;;;;;;;;;5140107;27;20027;-77
2023/09/16 10:12:21;;;;;;;4.50;4.20;;;;;;;;;;5149794;27;20019;-78
2023/09/16 10:14:47;;;;;;;3.97;3.67;;;;;;;;;;5139376;27;20019;-76
2023/09/16 10:17:14;;;;;;;4.72;4.20;;;;;;;;;;5134738;27;20045;-77
2023/09/16 10:19:40;;;;;;;4.88;4.47;;;;;;;;;;5137681;27;20023;-78
2023/09/16 10:22:06;;;;;;;4.40;4.10;;;;;;;;;;5129531;27;20042;-78
2023/09/16 10:24:33;;;;;;;4.70;4.30;;;;;;;;;;5146323;27;20030;-78
2023/09/16 10:27:02;;;;;;;4.65;4.32;;;;;;;;;;5131962;27;20028;-79
2023/09/16 10:29:29;;;;;;;4.75;4.35;;;;;;;;;;5121446;28;20023;-78
2023/09/16 10:31:56;;;;;;;4.43;4.13;;;;;;;;;;5121360;28;20078;-79
2023/09/16 10:34:22;;;;;;;4.20;3.83;;;;;;;;;;5137346;27;20042;-79
2023/09/16 10:36:48;;;;;;;4.20;3.90;;;;;;;;;;5141533;27;20046;-78
2023/09/16 10:39:15;;;;;;;3.92;3.63;;;;;;;;;;5127748;27;20058;-78
2023/09/16 10:41:42;;;;;;;4.28;3.97;;;;;;;;;;5138242;27;20027;-78
2023/09/16 10:44:08;;;;;;;3.63;3.35;;;;;;;;;;5139986;27;20027;-78
2023/09/16 10:46:35;;;;;;;3.95;3.65;;;;;;;;;;5134687;27;20028;-79
2023/09/16 10:49:01;;;;;;;4.35;4.05;;;;;;;;;;5121772;27;20020;-78
2023/09/16 10:51:29;;;;;;;3.78;3.55;;;;;;;;;;5121522;28;20023;-79
2023/09/16 10:54:00;;;;;;;3.88;3.58;;;;;;;;;;5122528;27;20024;-79
2023/09/16 10:56:29;;;;;;;4.38;4.05;;;;;;;;;;5124018;27;20027;-78
2023/09/16 10:59:09;;;;;;;4.20;3.90;;;;;;;;;;5135303;27;20026;-77
2023/09/16 11:01:36;;;;;;;4.13;3.83;;;;;;;;;;5134271;27;20019;-79
2023/09/16 11:04:09;;;;;;;3.90;3.60;;;;;;;;;;5128586;27;20023;-77
2023/09/16 11:06:35;;;;;;;4.40;4.03;;;;;;;;;;5127759;27;20042;-78
2023/09/16 11:09:01;;;;;;;3.80;3.50;;;;;;;;;;5130025;27;20354;-79
2023/09/16 11:11:28;;;;;;;3.50;3.30;;;;;;;;;;5137697;27;20069;-79
2023/09/16 11:13:54;;;;;;;4.40;4.00;;;;;;;;;;5136930;27;20023;-79
2023/09/16 11:16:21;;;;;;;4.35;4.05;;;;;;;;;;5123311;27;20036;-78
2023/09/16 11:18:55;;;;;;;4.32;4.03;;;;;;;;;;5137713;27;20050;-79
2023/09/16 11:21:21;;;;;;;4.38;3.97;;;;;;;;;;5140226;27;20115;-79
2023/09/16 11:23:48;;;;;;;4.53;4.20;;;;;;;;;;5139577;27;20031;-77
2023/09/16 11:26:22;;;;;;;5.13;4.72;;;;;;;;;;5139581;27;20028;-78
2023/09/16 11:28:49;;;;;;;4.50;4.13;;;;;;;;;;5126591;27;20026;-79
2023/09/16 11:31:15;;;;;;;4.72;4.40;;;;;;;;;;5127513;28;20036;-76
2023/09/16 11:33:42;;;;;;;4.53;4.13;;;;;;;;;;5150874;27;20043;-77
2023/09/16 11:36:13;;;;;;;4.35;3.97;;;;;;;;;;5158122;27;20055;-77
2023/09/16 11:38:52;;;;;;;3.85;3.63;;;;;;;;;;5157750;27;20023;-77
2023/09/16 11:41:18;;;;;;;3.92;3.63;;;;;;;;;;5165188;27;20015;-76
2023/09/16 11:43:45;;;;;;;4.68;4.28;;;;;;;;;;5172191;27;20033;-78
2023/09/16 11:46:12;;;;;;;4.30;4.00;;;;;;;;;;5173326;27;20011;-79
2023/09/16 11:48:52;;;;;;;4.05;3.75;;;;;;;;;;5158586;27;20016;-78
2023/09/16 11:51:18;;;;;;;4.15;3.85;;;;;;;;;;5145691;27;20086;-79
2023/09/16 11:53:45;;;;;;;4.22;3.92;;;;;;;;;;5128435;27;20024;-79
2023/09/16 11:56:11;;;;;;;3.58;3.30;;;;;;;;;;5121665;28;20381;-79
2023/09/16 11:58:37;;;;;;;3.97;3.65;;;;;;;;;;5134625;28;20058;-80
2023/09/16 12:01:03;;;;;;;4.05;3.75;;;;;;;;;;5140677;27;20030;-78
2023/09/16 12:03:30;;;;;;;4.20;3.90;;;;;;;;;;5128879;27;20492;-78
2023/09/16 12:05:57;;;;;;;4.15;3.83;;;;;;;;;;5121214;28;20020;-79
2023/09/16 12:08:24;;;;;;;3.63;3.33;;;;;;;;;;5131814;28;20023;-80
2023/09/16 12:10:51;;;;;;;4.30;3.90;;;;;;;;;;5141205;27;20022;-79
2023/09/16 12:13:30;;;;;;;3.80;3.50;;;;;;;;;;5138501;28;20054;-79
2023/09/16 12:15:57;;;;;;;3.97;3.67;;;;;;;;;;5140901;28;20064;-79
2023/09/16 12:18:23;;;;;;;3.80;3.50;;;;;;;;;;5129556;28;20019;-79
2023/09/16 12:20:49;;;;;;;4.30;3.70;;;;;;;;;;5119109;28;20019;-79
2023/09/16 12:23:18;;;;;;;4.38;3.97;;;;;;;;;;5129987;28;20099;-79
2023/09/16 12:25:45;;;;;;;4.00;3.70;;;;;;;;;;5138628;27;20097;-79
2023/09/16 12:28:12;;;;;;;3.92;3.63;;;;;;;;;;5142377;27;20027;-79
2023/09/16 12:30:42;;;;;;;3.50;3.30;;;;;;;;;;5136653;27;20027;-77
2023/09/16 12:33:08;;;;;;;3.38;3.17;;;;;;;;;;5131129;27;20023;-77
2023/09/16 12:35:37;;;;;;;3.25;3.05;;;;;;;;;;5120458;28;20039;-78
2023/09/16 12:38:04;;;;;;;3.30;3.10;;;;;;;;;;5121569;27;20038;-79
2023/09/16 12:40:30;;;;;;;3.78;3.50;;;;;;;;;;5130259;27;20027;-78
2023/09/16 12:42:57;;;;;;;3.47;3.28;;;;;;;;;;5157731;27;20039;-78
2023/09/16 12:45:23;;;;;;;3.15;2.95;;;;;;;;;;5143084;27;20363;-78
2023/09/16 12:47:50;;;;;;;3.20;3.00;;;;;;;;;;5142196;27;20029;-78
2023/09/16 12:50:17;;;;;;;3.50;3.20;;;;;;;;;;5144068;27;20049;-76
2023/09/16 12:52:43;;;;;;;3.40;3.20;;;;;;;;;;5145597;27;20045;-79
2023/09/16 12:55:12;;;;;;;4.25;3.95;;;;;;;;;;5122952;28;20382;-79
2023/09/16 12:57:39;;;;;;;3.22;3.03;;;;;;;;;;5124124;27;20038;-79
2023/09/16 13:00:08;;;;;;;3.53;3.33;;;;;;;;;;5138475;27;20027;-80
2023/09/16 13:02:36;;;;;;;3.53;3.13;;;;;;;;;;5142523;27;20053;-79
2023/09/16 13:05:23;;;;;;;2.95;2.75;;;;;;;;;;5137916;27;20019;-79
2023/09/16 13:07:51;;;;;;;3.15;2.95;;;;;;;;;;5141819;27;20015;-79
2023/09/16 13:10:18;;;;;;;3.10;2.90;;;;;;;;;;5139935;27;20038;-79
2023/09/16 13:12:44;;;;;;;2.70;2.60;;;;;;;;;;5153393;27;20074;-80
2023/09/16 13:15:11;;;;;;;3.13;2.90;;;;;;;;;;5134956;27;20032;-79
2023/09/16 13:17:38;;;;;;;3.45;3.25;;;;;;;;;;5133386;27;20397;-79
2023/09/16 13:20:06;;;;;;;3.03;2.85;;;;;;;;;;5135367;27;20055;-78
2023/09/16 13:22:32;;;;;;;3.35;3.10;;;;;;;;;;5142585;27;20023;-81
2023/09/16 13:24:58;;;;;;;2.80;2.60;;;;;;;;;;5147350;27;20015;-78
2023/09/16 13:27:25;;;;;;;3.03;2.83;;;;;;;;;;5141389;27;20050;-79
2023/09/16 13:29:59;;;;;;;3.47;3.28;;;;;;;;;;5140839;27;20030;-79
2023/09/16 13:32:25;;;;;;;3.25;3.05;;;;;;;;;;5121468;27;20028;-79
2023/09/16 13:34:53;;;;;;;3.03;2.83;;;;;;;;;;5118249;27;20076;-79
2023/09/16 13:37:19;;;;;;;2.95;2.75;;;;;;;;;;5123456;28;20027;-79
2023/09/16 13:39:46;;;;;;;3.15;2.85;;;;;;;;;;5124613;27;20030;-79
2023/09/16 13:42:13;;;;;;;2.80;2.60;;;;;;;;;;5149636;27;20015;-78
2023/09/16 13:44:39;;;;;;;3.05;2.70;;;;;;;;;;5142188;27;20095;-79
2023/09/16 13:47:05;;;;;;;5.10;3.33;;;;;;;;;;5131865;28;20048;-79
2023/09/16 13:49:31;;;;;;;2.88;2.67;;;;;;;;;;5126867;27;20089;-78
2023/09/16 13:51:58;;;;;;;2.90;2.63;;;;;;;;;;5137982;27;20059;-76
2023/09/16 13:54:24;;;;;;;2.83;2.63;;;;;;;;;;5123363;28;20028;-78
2023/09/16 13:56:50;;;;;;;3.13;2.90;;;;;;;;;;5127047;27;20024;-79
2023/09/16 13:59:16;;;;;;;3.33;3.13;;;;;;;;;;5142470;27;20027;-78
2023/09/16 14:01:44;;;;;;;2.72;2.63;;;;;;;;;;5138427;27;20019;-78
2023/09/16 14:04:10;;;;;;;3.00;2.80;;;;;;;;;;5122937;28;20087;-79
2023/09/16 14:06:36;;;;;;;3.20;2.90;;;;;;;;;;5119618;28;20501;-78
2023/09/16 14:09:02;;;;;;;2.85;2.65;;;;;;;;;;5117048;28;20387;-77
2023/09/16 14:11:28;;;;;;;2.85;2.65;;;;;;;;;;5121060;27;20424;-78
2023/09/16 14:13:54;;;;;;;2.67;2.47;;;;;;;;;;5141073;27;20028;-77
2023/09/16 14:16:20;;;;;;;2.83;2.63;;;;;;;;;;5154281;27;20008;-79
2023/09/16 14:18:46;;;;;;;2.70;2.50;;;;;;;;;;5158895;27;20027;-78
2023/09/16 14:21:12;;;;;;;3.28;3.00;;;;;;;;;;5159077;27;20023;-77
2023/09/16 14:23:38;;;;;;;2.65;2.47;;;;;;;;;;5138726;27;20026;-78
2023/09/16 14:26:04;;;;;;;3.30;2.65;;;;;;;;;;5138158;28;20011;-78
2023/09/16 14:28:32;;;;;;;3.25;3.05;;;;;;;;;;5155941;27;20114;-78
2023/09/16 14:31:05;;;;;;;3.10;2.90;;;;;;;;;;5158761;27;20042;-77
2023/09/16 14:33:31;;;;;;;3.20;3.00;;;;;;;;;;5159103;27;20027;-77
2023/09/16 14:35:57;;;;;;;3.13;2.92;;;;;;;;;;5159012;27;20011;-78
2023/09/16 14:38:23;;;;;;;3.10;2.90;;;;;;;;;;5156834;27;20041;-78
2023/09/16 14:40:49;;;;;;;3.15;2.95;;;;;;;;;;5157444;27;20028;-78